Time;durP1;ratioP1;P1;durP2;ratioP2;P2;SDS_P1;SDS_P2;PMS_P1;PMS_P2;Temp;Humidity;BMP_temperature;BMP_pressure;BME280_temperature;BME280_humidity;BME280_pressure;Samples;Min_cycle;Max_cycle;Signal;HPM_P1;HPM_P2
2021/05/27 00:01:34;;;;;;;0.95;0.68;;;9.30;85.40;;;;;;5095095;28;20032;-76
2021/05/27 00:04:00;;;;;;;1.65;0.90;;;9.20;85.10;;;;;;5093180;28;20488;-76
2021/05/27 00:06:26;;;;;;;2.70;1.30;;;9.20;85.20;;;;;;5093201;28;20425;-77
2021/05/27 00:08:51;;;;;;;3.60;1.20;;;9.20;85.50;;;;;;5093083;28;20020;-77
2021/05/27 00:11:17;;;;;;;2.13;1.17;;;9.10;85.80;;;;;;5094549;28;20024;-75
2021/05/27 00:13:42;;;;;;;1.95;1.10;;;9.10;85.70;;;;;;5093028;28;20034;-76
2021/05/27 00:16:08;;;;;;;1.63;1.15;;;9.00;86.00;;;;;;5093595;28;20030;-76
2021/05/27 00:18:33;;;;;;;2.08;1.30;;;9.00;85.90;;;;;;5093146;28;20066;-77
2021/05/27 00:21:00;;;;;;;1.45;1.30;;;9.00;86.10;;;;;;5093096;28;20036;-77
2021/05/27 00:23:25;;;;;;;1.52;1.10;;;9.00;86.50;;;;;;5093479;28;20468;-77
2021/05/27 00:25:51;;;;;;;4.05;0.93;;;9.00;86.20;;;;;;5092843;28;20038;-80
2021/05/27 00:28:17;;;;;;;3.35;1.02;;;8.90;85.90;;;;;;5092861;28;20422;-75
2021/05/27 00:30:42;;;;;;;2.75;1.15;;;9.00;85.80;;;;;;5092624;28;20115;-77
2021/05/27 00:33:09;;;;;;;2.20;1.20;;;8.90;85.90;;;;;;5075911;28;20400;-77
2021/05/27 00:35:35;;;;;;;2.33;1.27;;;8.90;85.80;;;;;;5092898;28;20031;-75
2021/05/27 00:38:02;;;;;;;2.83;1.08;;;8.90;86.00;;;;;;5092412;28;20214;-77
2021/05/27 00:40:27;;;;;;;2.28;1.10;;;8.90;86.20;;;;;;5093534;28;20120;-75
2021/05/27 00:42:53;;;;;;;1.48;0.52;;;8.90;86.30;;;;;;5094303;28;20052;-75
2021/05/27 00:45:19;;;;;;;1.08;0.50;;;8.80;84.80;;;;;;5075573;28;20032;-74
2021/05/27 00:47:45;;;;;;;0.35;0.35;;;8.80;84.30;;;;;;5092636;28;20142;-76
2021/05/27 00:50:21;;;;;;;0.60;0.30;;;8.70;83.00;;;;;;5092812;28;20423;-76
2021/05/27 00:52:52;;;;;;;0.52;0.30;;;8.60;82.70;;;;;;5092894;28;20115;-75
2021/05/27 00:55:20;;;;;;;0.70;0.30;;;8.60;82.70;;;;;;5092314;28;20020;-76
2021/05/27 00:57:46;;;;;;;0.25;0.25;;;8.70;83.20;;;;;;5092436;28;20031;-76
2021/05/27 01:00:14;;;;;;;1.05;0.35;;;8.70;82.70;;;;;;5092623;28;20173;-76
2021/05/27 01:02:41;;;;;;;0.80;0.40;;;8.70;82.60;;;;;;5092398;28;20035;-76
2021/05/27 01:05:09;;;;;;;0.75;0.50;;;8.70;83.10;;;;;;5092401;28;20049;-76
2021/05/27 01:07:36;;;;;;;0.70;0.65;;;8.70;84.10;;;;;;5092358;28;20024;-77
2021/05/27 01:10:02;;;;;;;0.45;0.45;;;8.70;84.90;;;;;;5094199;28;20028;-76
2021/05/27 01:12:28;;;;;;;1.38;0.60;;;8.80;85.30;;;;;;5091956;28;20141;-76
2021/05/27 01:17:59;;;;;;;0.47;0.47;;;8.80;85.80;;;;;;5097625;28;20496;-79
2021/05/27 01:20:36;;;;;;;2.13;0.68;;;8.90;85.90;;;;;;5096874;28;20446;-78
2021/05/27 01:23:02;;;;;;;1.20;0.60;;;8.90;85.80;;;;;;5096595;28;20554;-79
2021/05/27 01:25:29;;;;;;;0.90;0.55;;;8.90;86.10;;;;;;5075239;28;20430;-80
2021/05/27 01:27:55;;;;;;;0.63;0.60;;;8.90;86.30;;;;;;5092435;28;20016;-78
2021/05/27 01:30:21;;;;;;;1.30;0.50;;;8.90;86.30;;;;;;5092388;28;20027;-78
2021/05/27 01:32:47;;;;;;;1.85;0.70;;;8.90;86.40;;;;;;5091611;28;20112;-80
2021/05/27 01:35:19;;;;;;;1.05;0.40;;;8.90;86.00;;;;;;5092031;28;20056;-79
2021/05/27 01:37:45;;;;;;;1.40;0.40;;;8.90;86.00;;;;;;5093667;28;20087;-80
2021/05/27 01:40:14;;;;;;;0.73;0.50;;;8.90;85.80;;;;;;5091824;28;20028;-77
2021/05/27 01:42:39;;;;;;;1.95;0.70;;;8.90;86.50;;;;;;5091985;28;20024;-77
2021/05/27 01:45:06;;;;;;;0.73;0.43;;;9.00;85.60;;;;;;5091715;28;20433;-76
2021/05/27 01:47:32;;;;;;;0.75;0.55;;;9.00;85.50;;;;;;5091735;28;20044;-78
2021/05/27 01:49:57;;;;;;;0.35;0.35;;;8.90;85.50;;;;;;5091322;28;20026;-79
2021/05/27 01:52:23;;;;;;;3.22;0.50;;;9.00;85.50;;;;;;5091866;28;20039;-77
2021/05/27 01:54:48;;;;;;;0.50;0.47;;;9.00;85.20;;;;;;5093291;28;20153;-77
2021/05/27 01:57:14;;;;;;;1.17;0.40;;;8.90;85.40;;;;;;5091713;28;20023;-77
2021/05/27 01:59:39;;;;;;;0.40;0.40;;;8.90;85.20;;;;;;5091292;28;20024;-76
2021/05/27 02:02:05;;;;;;;0.55;0.30;;;8.90;85.30;;;;;;5091427;28;20120;-76
2021/05/27 02:04:31;;;;;;;2.05;0.50;;;9.00;85.30;;;;;;5091688;28;20031;-76
2021/05/27 02:06:57;;;;;;;0.40;0.30;;;8.90;85.20;;;;;;5092910;28;20031;-76
2021/05/27 02:09:23;;;;;;;3.92;0.40;;;8.80;85.00;;;;;;5091920;28;20021;-76
2021/05/27 02:11:49;;;;;;;0.73;0.50;;;8.80;85.30;;;;;;5091436;28;20024;-76
2021/05/27 02:14:16;;;;;;;0.40;0.40;;;8.80;85.60;;;;;;5091641;28;20028;-77
2021/05/27 02:16:43;;;;;;;0.50;0.40;;;8.80;85.70;;;;;;5092560;28;20031;-76
2021/05/27 02:19:10;;;;;;;1.42;0.60;;;8.80;85.70;;;;;;5091210;28;20111;-77
2021/05/27 02:21:36;;;;;;;0.68;0.50;;;8.90;85.70;;;;;;5092573;28;20103;-77
2021/05/27 02:24:03;;;;;;;0.55;0.40;;;8.90;85.60;;;;;;5090755;28;20393;-76
2021/05/27 02:26:29;;;;;;;1.10;0.47;;;8.90;85.60;;;;;;5092439;28;20031;-76
2021/05/27 02:28:55;;;;;;;0.85;0.50;;;8.90;85.50;;;;;;5092519;28;20025;-77
2021/05/27 02:31:22;;;;;;;0.88;0.55;;;8.90;85.40;;;;;;5095868;28;20494;-76
2021/05/27 02:33:49;;;;;;;1.50;0.70;;;9.00;85.40;;;;;;5115563;28;20004;-76
2021/05/27 02:36:15;;;;;;;0.90;0.52;;;8.90;84.90;;;;;;5105767;28;20031;-78
2021/05/27 02:38:41;;;;;;;0.43;0.40;;;8.90;84.20;;;;;;5091566;28;20028;-78
2021/05/27 02:41:07;;;;;;;1.05;0.50;;;9.00;84.70;;;;;;5091061;28;20036;-78
2021/05/27 02:43:33;;;;;;;0.75;0.50;;;9.00;84.00;;;;;;5091396;28;20024;-78
2021/05/27 02:46:03;;;;;;;1.55;0.50;;;9.00;84.40;;;;;;5090631;28;20040;-78
2021/05/27 02:48:29;;;;;;;2.42;0.68;;;9.00;84.50;;;;;;5091099;28;20024;-78
2021/05/27 02:50:56;;;;;;;2.47;0.50;;;8.90;84.00;;;;;;5091189;28;20024;-79
2021/05/27 02:53:22;;;;;;;1.70;0.40;;;8.80;80.00;;;;;;5091322;28;20118;-79
2021/05/27 02:55:47;;;;;;;2.60;0.50;;;8.70;79.10;;;;;;5074210;28;20513;-79
2021/05/27 02:58:14;;;;;;;1.40;0.70;;;8.70;79.30;;;;;;5091410;28;20021;-80
2021/05/27 03:00:40;;;;;;;1.52;0.73;;;8.60;79.10;;;;;;5091090;28;20043;-79
2021/05/27 03:03:05;;;;;;;0.52;0.50;;;8.60;79.60;;;;;;5093222;28;20016;-78
2021/05/27 03:05:31;;;;;;;1.33;0.60;;;8.60;79.40;;;;;;5094608;28;20035;-80
2021/05/27 03:07:57;;;;;;;1.00;0.70;;;8.60;79.10;;;;;;5094462;28;20119;-79
2021/05/27 03:10:23;;;;;;;1.40;0.60;;;8.60;80.00;;;;;;5094465;28;20477;-78
2021/05/27 03:12:48;;;;;;;1.23;0.70;;;8.70;81.40;;;;;;5094602;28;20024;-79
2021/05/27 03:15:14;;;;;;;0.98;0.60;;;8.70;82.20;;;;;;5094347;28;20027;-80
2021/05/27 03:17:40;;;;;;;1.20;0.50;;;8.70;82.80;;;;;;5094424;28;20128;-79
2021/05/27 03:20:06;;;;;;;0.98;0.70;;;8.70;83.20;;;;;;5094475;28;20123;-77
2021/05/27 03:22:32;;;;;;;1.70;0.60;;;8.70;83.50;;;;;;5093929;28;20048;-77
2021/05/27 03:24:58;;;;;;;0.75;0.75;;;8.70;83.80;;;;;;5095679;28;20056;-79
2021/05/27 03:27:23;;;;;;;1.30;0.60;;;8.70;83.80;;;;;;5094180;28;20021;-79
2021/05/27 03:29:49;;;;;;;2.42;0.68;;;8.70;84.00;;;;;;5094063;28;20025;-78
2021/05/27 03:32:15;;;;;;;1.65;0.65;;;8.70;84.30;;;;;;5094064;28;20427;-79
2021/05/27 03:34:40;;;;;;;0.73;0.55;;;8.60;85.40;;;;;;5093964;28;20059;-79
2021/05/27 03:37:06;;;;;;;0.65;0.55;;;8.60;84.80;;;;;;5094275;28;20020;-80
2021/05/27 03:39:32;;;;;;;1.40;0.60;;;8.60;84.90;;;;;;5094103;28;20036;-80
2021/05/27 03:41:57;;;;;;;3.30;0.63;;;8.60;85.00;;;;;;5093812;28;20024;-80
2021/05/27 03:44:23;;;;;;;1.13;0.70;;;8.50;85.20;;;;;;5076935;28;20024;-79
2021/05/27 03:46:49;;;;;;;1.25;0.60;;;8.60;85.50;;;;;;5093728;28;20051;-80
2021/05/27 03:49:14;;;;;;;1.85;0.50;;;8.60;85.50;;;;;;5093569;28;20032;-79
2021/05/27 03:51:40;;;;;;;2.08;0.90;;;8.60;85.60;;;;;;5076917;28;20576;-79
2021/05/27 03:54:06;;;;;;;1.15;0.75;;;8.60;85.60;;;;;;5093755;28;20468;-78
2021/05/27 03:56:32;;;;;;;0.95;0.80;;;8.60;85.70;;;;;;5093675;28;20020;-79
2021/05/27 04:01:42;;;;;;;0.73;0.73;;;8.60;85.70;;;;;;5095282;28;20066;-79
2021/05/27 04:07:11;;;;;;;2.33;1.38;;;8.70;85.50;;;;;;5095156;28;20435;-79
2021/05/27 04:09:41;;;;;;;2.00;1.20;;;8.70;85.20;;;;;;5094842;28;20023;-79
2021/05/27 04:17:40;;;;;;;1.30;0.65;;;8.70;85.30;;;;;;5093143;28;20043;-77
2021/05/27 04:20:07;;;;;;;0.85;0.70;;;8.70;85.40;;;;;;5089395;28;20032;-76
2021/05/27 04:22:32;;;;;;;1.85;0.98;;;8.80;85.60;;;;;;5091744;28;20012;-76
2021/05/27 04:24:58;;;;;;;1.20;1.00;;;8.70;85.90;;;;;;5092452;28;20107;-77
2021/05/27 04:27:23;;;;;;;1.00;0.80;;;8.70;86.30;;;;;;5092458;28;20020;-76
2021/05/27 04:29:52;;;;;;;1.10;1.00;;;8.70;86.40;;;;;;5093999;28;20060;-76
2021/05/27 04:35:02;;;;;;;1.27;0.93;;;8.80;86.50;;;;;;5094496;28;20115;-76
2021/05/27 04:37:28;;;;;;;1.73;0.90;;;8.70;86.50;;;;;;5092874;28;20051;-76
2021/05/27 04:39:53;;;;;;;1.10;1.00;;;8.80;86.40;;;;;;5075763;28;20042;-76
2021/05/27 04:42:19;;;;;;;1.95;0.80;;;8.80;86.30;;;;;;5092532;28;20393;-76
2021/05/27 04:44:44;;;;;;;1.77;1.00;;;8.80;86.20;;;;;;5092881;28;20370;-76
2021/05/27 04:47:10;;;;;;;2.03;0.77;;;8.80;86.10;;;;;;5092217;28;20115;-76
2021/05/27 04:49:35;;;;;;;1.00;0.73;;;8.80;85.90;;;;;;5092524;28;20388;-77
2021/05/27 04:52:01;;;;;;;0.82;0.63;;;8.80;85.50;;;;;;5092873;28;20031;-76
2021/05/27 04:54:28;;;;;;;0.85;0.77;;;8.80;85.20;;;;;;5092606;28;20035;-76
2021/05/27 04:56:53;;;;;;;1.48;0.98;;;8.90;85.20;;;;;;5092368;28;20119;-76
2021/05/27 04:59:19;;;;;;;1.45;0.73;;;8.90;85.20;;;;;;5092489;28;20051;-76
2021/05/27 05:01:45;;;;;;;0.82;0.75;;;8.90;85.30;;;;;;5092534;28;20032;-77
2021/05/27 05:04:10;;;;;;;2.22;1.13;;;9.00;85.20;;;;;;5092882;28;20027;-76
2021/05/27 05:06:36;;;;;;;1.60;0.65;;;9.00;85.00;;;;;;5092446;28;20054;-76
2021/05/27 05:09:04;;;;;;;1.27;0.70;;;9.00;84.70;;;;;;5092065;28;20369;-76
2021/05/27 05:11:29;;;;;;;1.13;0.85;;;9.00;84.80;;;;;;5092464;28;20024;-76
2021/05/27 05:13:55;;;;;;;2.22;0.70;;;9.10;84.80;;;;;;5091991;28;20081;-77
2021/05/27 05:16:21;;;;;;;2.22;0.85;;;9.10;84.80;;;;;;5092365;28;20027;-78
2021/05/27 05:18:51;;;;;;;1.13;0.95;;;9.10;84.80;;;;;;5091754;28;20024;-77
2021/05/27 05:21:16;;;;;;;0.93;0.85;;;9.10;84.40;;;;;;5091921;28;20032;-78
2021/05/27 05:23:42;;;;;;;2.08;1.30;;;9.10;84.30;;;;;;5092180;28;20165;-77
2021/05/27 05:26:07;;;;;;;3.53;1.30;;;9.10;84.40;;;;;;5091420;28;20094;-78
2021/05/27 05:28:33;;;;;;;2.40;1.45;;;9.10;84.60;;;;;;5091861;28;20476;-76
2021/05/27 05:30:59;;;;;;;3.10;1.50;;;9.10;84.50;;;;;;5075162;28;20032;-77
2021/05/27 05:33:24;;;;;;;3.70;1.48;;;9.20;84.80;;;;;;5091633;28;20473;-80
2021/05/27 05:35:51;;;;;;;3.22;1.83;;;9.20;85.00;;;;;;5074881;28;20434;-78
2021/05/27 05:38:17;;;;;;;2.05;1.25;;;9.30;85.40;;;;;;5091941;28;20111;-78
2021/05/27 05:40:43;;;;;;;1.13;0.98;;;9.20;85.50;;;;;;5091723;28;20132;-78
2021/05/27 05:43:08;;;;;;;2.78;1.35;;;9.30;86.40;;;;;;5092956;28;20103;-76
2021/05/27 05:45:35;;;;;;;1.83;1.25;;;9.30;85.60;;;;;;5091389;28;20058;-77
2021/05/27 05:48:01;;;;;;;2.88;1.27;;;9.40;85.40;;;;;;5091827;28;20043;-76
2021/05/27 05:50:48;;;;;;;1.00;0.90;;;9.30;85.00;;;;;;5091433;28;20057;-76
2021/05/27 05:53:22;;;;;;;1.25;1.10;;;9.40;84.90;;;;;;5091656;28;20020;-76
2021/05/27 05:55:48;;;;;;;3.53;1.50;;;9.40;84.70;;;;;;5091415;28;20425;-76
2021/05/27 05:58:14;;;;;;;3.92;1.20;;;9.40;84.60;;;;;;5091836;28;20020;-76
2021/05/27 06:00:39;;;;;;;3.22;1.38;;;9.40;84.80;;;;;;5091518;28;20035;-76
2021/05/27 06:03:06;;;;;;;2.25;1.30;;;9.40;84.70;;;;;;5091030;28;20449;-77
2021/05/27 06:05:32;;;;;;;2.20;1.40;;;9.50;84.60;;;;;;5091226;28;20025;-76
2021/05/27 06:07:58;;;;;;;2.28;1.23;;;9.40;84.60;;;;;;5091139;28;20469;-76
2021/05/27 06:10:24;;;;;;;1.77;1.30;;;9.50;84.90;;;;;;5090794;28;20043;-77
2021/05/27 06:12:56;;;;;;;3.38;1.63;;;9.50;84.80;;;;;;5091189;28;20445;-77
2021/05/27 06:15:22;;;;;;;4.53;1.75;;;9.60;84.40;;;;;;5091268;28;20047;-76
2021/05/27 06:17:51;;;;;;;1.88;1.70;;;9.60;83.60;;;;;;5076860;28;20020;-76
2021/05/27 06:20:19;;;;;;;2.33;1.40;;;9.70;83.00;;;;;;5115214;28;20038;-76
2021/05/27 06:22:46;;;;;;;3.22;2.05;;;9.70;82.50;;;;;;5105065;28;20500;-76
2021/05/27 06:25:12;;;;;;;4.55;2.45;;;9.70;82.00;;;;;;5091109;28;20035;-76
2021/05/27 06:27:38;;;;;;;4.70;2.10;;;9.70;81.20;;;;;;5091168;28;20393;-76
2021/05/27 06:30:06;;;;;;;12.73;6.43;;;9.70;79.20;;;;;;5092422;28;20023;-76
2021/05/27 06:32:34;;;;;;;2.72;1.73;;;9.60;78.40;;;;;;5090296;28;20052;-76
2021/05/27 06:35:00;;;;;;;2.75;1.70;;;9.40;79.60;;;;;;5092322;28;20091;-76
2021/05/27 06:37:26;;;;;;;2.45;1.60;;;9.30;80.40;;;;;;5094179;28;20028;-72
2021/05/27 06:39:51;;;;;;;3.80;1.73;;;9.30;80.20;;;;;;5095995;28;20504;-73
2021/05/27 06:42:18;;;;;;;6.07;1.50;;;9.10;79.70;;;;;;5094821;28;20069;-72
2021/05/27 06:44:44;;;;;;;3.08;1.38;;;9.00;80.50;;;;;;5096156;28;20031;-72
2021/05/27 06:47:09;;;;;;;1.80;1.40;;;9.10;80.30;;;;;;5096380;28;20048;-72
2021/05/27 06:49:35;;;;;;;2.30;1.70;;;9.20;80.30;;;;;;5094918;28;20384;-70
2021/05/27 06:52:01;;;;;;;3.15;1.60;;;9.30;80.10;;;;;;5096079;28;20369;-71
2021/05/27 06:54:27;;;;;;;3.63;1.67;;;9.40;79.70;;;;;;5096207;28;20032;-70
2021/05/27 06:56:53;;;;;;;3.65;1.52;;;9.40;80.20;;;;;;5096008;28;20536;-73
2021/05/27 06:59:19;;;;;;;4.07;1.80;;;9.40;78.90;;;;;;5094471;28;20020;-72
2021/05/27 07:01:45;;;;;;;5.03;1.70;;;9.50;78.80;;;;;;5095948;28;20081;-73
2021/05/27 07:04:11;;;;;;;4.95;1.98;;;9.30;79.30;;;;;;5094622;28;20069;-77
2021/05/27 07:06:37;;;;;;;4.93;1.90;;;9.30;80.20;;;;;;5094735;28;20471;-76
2021/05/27 07:09:03;;;;;;;7.13;2.00;;;9.20;80.20;;;;;;5094546;28;20055;-76
2021/05/27 07:11:29;;;;;;;49.75;7.38;;;9.20;79.60;;;;;;5095757;28;20553;-75
2021/05/27 07:13:54;;;;;;;22.20;4.22;;;9.40;83.90;;;;;;5095847;28;20042;-71
2021/05/27 07:16:20;;;;;;;13.02;2.97;;;9.70;88.00;;;;;;5095825;28;20039;-74
2021/05/27 07:18:46;;;;;;;9.20;2.83;;;10.10;86.90;;;;;;5096054;28;20023;-71
2021/05/27 07:21:11;;;;;;;8.95;2.70;;;10.40;82.00;;;;;;5095651;28;20028;-71
2021/05/27 07:23:37;;;;;;;7.32;2.15;;;10.60;81.20;;;;;;5095695;28;20020;-73
2021/05/27 07:26:04;;;;;;;7.30;1.90;;;10.90;80.10;;;;;;5095439;28;20028;-73
2021/05/27 07:28:30;;;;;;;9.93;2.50;;;10.90;76.00;;;;;;5095434;28;20044;-74
2021/05/27 07:30:56;;;;;;;6.68;2.17;;;11.10;75.60;;;;;;5095410;28;20177;-74
2021/05/27 07:33:22;;;;;;;3.88;2.13;;;11.20;75.40;;;;;;5095401;28;20028;-73
2021/05/27 07:35:47;;;;;;;7.05;2.70;;;11.20;73.40;;;;;;5095375;28;20474;-74
2021/05/27 07:38:13;;;;;;;3.60;1.77;;;11.40;74.00;;;;;;5095114;28;20051;-81
2021/05/27 07:40:39;;;;;;;3.15;1.67;;;11.60;73.00;;;;;;5095103;28;20068;-74
2021/05/27 07:43:04;;;;;;;3.63;1.50;;;11.70;72.40;;;;;;5095160;28;20020;-84
2021/05/27 07:45:30;;;;;;;5.00;1.73;;;11.80;70.90;;;;;;5093744;28;20020;-73
2021/05/27 07:47:56;;;;;;;2.67;1.60;;;11.90;70.40;;;;;;5094203;28;20527;-74
2021/05/27 07:50:22;;;;;;;2.38;1.35;;;12.00;68.80;;;;;;5095056;28;20071;-74
2021/05/27 07:52:48;;;;;;;4.70;1.73;;;12.00;69.20;;;;;;5095266;28;20024;-73
2021/05/27 07:55:14;;;;;;;2.50;1.60;;;12.20;69.20;;;;;;5095099;28;20464;-74
2021/05/27 07:57:40;;;;;;;1.95;1.30;;;12.20;68.10;;;;;;5095067;28;20099;-74
2021/05/27 08:00:07;;;;;;;4.63;1.48;;;12.10;67.10;;;;;;5094672;28;20024;-74
2021/05/27 08:02:32;;;;;;;4.75;1.50;;;12.30;68.10;;;;;;5094668;28;20024;-73
2021/05/27 08:04:58;;;;;;;1.98;1.17;;;12.40;68.30;;;;;;5094713;28;20020;-76
2021/05/27 08:07:24;;;;;;;4.22;1.30;;;12.60;67.00;;;;;;5094943;28;20120;-75
2021/05/27 08:09:50;;;;;;;5.65;1.40;;;12.40;66.50;;;;;;5094677;28;20024;-77
2021/05/27 08:12:15;;;;;;;3.22;1.65;;;12.30;68.40;;;;;;5094539;28;20020;-76
2021/05/27 08:14:41;;;;;;;3.17;1.60;;;12.30;69.10;;;;;;5094543;28;20054;-75
2021/05/27 08:17:06;;;;;;;2.83;1.58;;;12.40;68.50;;;;;;5094147;28;20203;-75
2021/05/27 08:19:33;;;;;;;2.55;1.50;;;12.20;69.00;;;;;;5094448;28;20024;-75
2021/05/27 08:21:59;;;;;;;5.55;1.70;;;12.10;68.00;;;;;;5094353;28;20032;-76
2021/05/27 08:24:24;;;;;;;2.85;1.85;;;11.90;67.70;;;;;;5094288;28;20035;-75
2021/05/27 08:26:50;;;;;;;3.28;1.70;;;11.80;69.60;;;;;;5094427;28;20108;-76
2021/05/27 08:29:15;;;;;;;2.67;1.70;;;11.40;69.70;;;;;;5094858;28;20035;-76
2021/05/27 08:31:41;;;;;;;5.28;1.75;;;11.30;70.70;;;;;;5095342;28;20028;-76
2021/05/27 08:34:08;;;;;;;2.10;1.20;;;11.30;70.90;;;;;;5099253;28;20020;-80
2021/05/27 08:36:34;;;;;;;3.67;1.17;;;11.30;70.80;;;;;;5095853;28;20028;-76
2021/05/27 08:39:00;;;;;;;4.55;1.20;;;11.20;69.60;;;;;;5097778;28;20064;-76
2021/05/27 08:41:25;;;;;;;3.08;1.40;;;11.20;67.80;;;;;;5100392;28;20413;-75
2021/05/27 08:43:51;;;;;;;4.00;1.63;;;11.40;69.10;;;;;;5094943;28;20024;-75
2021/05/27 08:46:20;;;;;;;4.00;1.70;;;11.20;68.80;;;;;;5097036;28;20177;-77
2021/05/27 08:48:46;;;;;;;5.18;1.58;;;11.30;71.00;;;;;;5094604;28;20095;-77
2021/05/27 08:51:12;;;;;;;2.50;1.60;;;11.50;70.50;;;;;;5093944;28;20058;-76
2021/05/27 08:53:38;;;;;;;4.43;1.95;;;11.50;68.70;;;;;;5093159;28;20032;-75
2021/05/27 08:56:04;;;;;;;3.22;1.77;;;11.60;67.70;;;;;;5093781;28;20030;-75
2021/05/27 08:58:30;;;;;;;5.22;1.88;;;11.70;67.70;;;;;;5093852;28;20038;-74
2021/05/27 09:00:56;;;;;;;3.55;1.27;;;11.90;68.10;;;;;;5092838;28;20119;-74
2021/05/27 09:03:23;;;;;;;4.93;1.40;;;12.10;65.70;;;;;;5093612;28;20027;-76
2021/05/27 09:05:59;;;;;;;3.17;1.48;;;12.10;66.00;;;;;;5093097;28;20024;-76
2021/05/27 09:08:30;;;;;;;2.38;0.90;;;12.30;65.80;;;;;;5093876;28;20024;-75
2021/05/27 09:11:16;;;;;;;4.90;1.05;;;12.30;64.00;;;;;;5093465;28;20043;-75
2021/05/27 09:14:01;;;;;;;2.28;0.80;;;12.40;62.40;;;;;;5093394;28;20032;-78
2021/05/27 09:16:28;;;;;;;2.65;0.70;;;12.10;62.20;;;;;;5090931;28;20027;-76
2021/05/27 09:18:54;;;;;;;3.03;1.38;;;12.00;63.30;;;;;;5093081;28;20059;-76
2021/05/27 09:21:35;;;;;;;2.60;1.10;;;12.40;63.00;;;;;;5093113;28;20039;-77
2021/05/27 09:24:01;;;;;;;5.65;1.33;;;12.40;63.30;;;;;;5093363;28;20016;-75
2021/05/27 09:26:26;;;;;;;2.08;1.25;;;12.40;61.90;;;;;;5093268;28;20046;-76
2021/05/27 09:29:07;;;;;;;2.03;1.10;;;12.50;62.80;;;;;;5093189;28;20038;-77
2021/05/27 09:31:33;;;;;;;3.15;1.17;;;12.60;62.60;;;;;;5093351;28;20020;-78
2021/05/27 09:34:03;;;;;;;2.13;0.88;;;12.70;61.90;;;;;;5093253;28;20350;-81
2021/05/27 09:36:29;;;;;;;1.52;0.98;;;12.90;61.50;;;;;;5093439;28;20425;-86
2021/05/27 09:38:57;;;;;;;4.03;0.73;;;13.20;59.50;;;;;;5093226;28;20062;-78
2021/05/27 09:41:25;;;;;;;2.42;0.70;;;13.20;59.40;;;;;;5092985;28;20035;-78
2021/05/27 09:44:05;;;;;;;3.35;0.90;;;13.20;57.30;;;;;;5093369;28;20051;-77
2021/05/27 09:46:56;;;;;;;1.05;0.85;;;12.80;57.20;;;;;;5092747;28;20071;-79
2021/05/27 09:49:26;;;;;;;1.95;0.50;;;12.70;57.40;;;;;;5092551;28;20031;-77
2021/05/27 09:51:54;;;;;;;2.85;0.77;;;12.80;52.40;;;;;;5092228;28;20059;-77
2021/05/27 09:54:19;;;;;;;1.15;0.65;;;13.00;50.90;;;;;;5092754;28;20042;-78
2021/05/27 09:56:45;;;;;;;2.33;0.80;;;12.90;52.10;;;;;;5092526;28;20016;-78
2021/05/27 09:59:14;;;;;;;3.00;0.80;;;13.10;54.10;;;;;;5092767;28;20020;-79
2021/05/27 10:02:00;;;;;;;3.50;0.70;;;13.50;54.00;;;;;;5092325;28;20529;-79
2021/05/27 10:04:26;;;;;;;1.83;0.70;;;13.40;50.40;;;;;;5092471;28;20024;-78
2021/05/27 10:06:51;;;;;;;3.17;1.00;;;13.30;53.00;;;;;;5092528;28;20103;-78
2021/05/27 10:09:19;;;;;;;0.95;0.73;;;13.20;54.70;;;;;;5092669;28;20028;-79
2021/05/27 10:11:44;;;;;;;1.73;0.73;;;13.50;52.30;;;;;;5110357;28;20035;-79
2021/05/27 10:14:11;;;;;;;3.78;0.60;;;13.50;50.50;;;;;;5098086;28;20020;-79
2021/05/27 10:16:37;;;;;;;3.28;0.80;;;13.40;51.10;;;;;;5109249;28;20020;-78
2021/05/27 10:19:04;;;;;;;3.15;0.90;;;13.40;50.70;;;;;;5100481;28;20032;-78
2021/05/27 10:21:30;;;;;;;2.33;0.65;;;13.50;50.30;;;;;;5096991;28;20091;-78
2021/05/27 10:23:59;;;;;;;4.43;1.00;;;13.70;50.80;;;;;;5097553;28;20060;-79
2021/05/27 10:26:25;;;;;;;2.88;1.10;;;13.80;50.00;;;;;;5096689;28;20081;-79
2021/05/27 10:28:54;;;;;;;2.83;1.00;;;14.00;50.70;;;;;;5096657;28;20056;-78
2021/05/27 10:31:24;;;;;;;1.77;0.70;;;14.20;49.80;;;;;;5096347;28;20350;-78
2021/05/27 10:33:49;;;;;;;2.28;1.13;;;14.30;49.50;;;;;;5112210;28;20404;-79
2021/05/27 10:36:15;;;;;;;4.15;0.65;;;14.60;49.00;;;;;;5094792;28;20035;-76
2021/05/27 10:38:45;;;;;;;3.47;0.98;;;14.80;47.10;;;;;;5096401;28;20427;-77
2021/05/27 10:41:29;;;;;;;5.00;0.80;;;14.50;47.50;;;;;;5095052;28;20396;-79
2021/05/27 10:44:16;;;;;;;2.90;0.77;;;14.50;47.70;;;;;;5096557;28;20024;-78
2021/05/27 10:46:44;;;;;;;1.23;0.70;;;14.60;47.30;;;;;;5095817;28;20093;-79
2021/05/27 10:49:10;;;;;;;1.20;0.70;;;14.50;48.00;;;;;;5096268;28;20104;-79
2021/05/27 10:54:13;;;;;;;2.45;0.50;;;15.10;47.90;;;;;;5096590;28;20027;-79
2021/05/27 10:56:47;;;;;;;1.70;0.70;;;14.90;47.80;;;;;;5096171;28;20031;-79
2021/05/27 10:59:17;;;;;;;1.48;0.90;;;14.90;48.30;;;;;;5094623;28;20075;-77
2021/05/27 11:01:43;;;;;;;2.15;1.00;;;15.10;48.30;;;;;;5095924;28;20552;-77
2021/05/27 11:04:24;;;;;;;1.98;0.65;;;15.30;47.20;;;;;;5095961;28;20047;-78
2021/05/27 11:07:09;;;;;;;2.45;0.70;;;15.30;45.70;;;;;;5095874;28;20024;-76
2021/05/27 11:09:37;;;;;;;4.90;0.90;;;15.60;43.80;;;;;;5096196;28;20527;-77
2021/05/27 11:12:11;;;;;;;1.20;0.80;;;15.80;43.60;;;;;;5096024;28;20038;-78
2021/05/27 11:14:44;;;;;;;5.00;0.73;;;15.70;43.40;;;;;;5094504;28;20020;-77
2021/05/27 11:17:15;;;;;;;4.57;0.85;;;15.50;42.60;;;;;;5095715;28;20020;-78
2021/05/27 11:19:57;;;;;;;1.52;0.68;;;15.70;41.90;;;;;;5095577;28;20460;-79
2021/05/27 11:25:15;;;;;;;3.45;0.68;;;16.40;40.20;;;;;;5095507;28;20024;-78
2021/05/27 11:27:45;;;;;;;1.90;0.70;;;16.30;40.50;;;;;;5095451;28;20038;-78
2021/05/27 11:30:17;;;;;;;1.65;0.60;;;16.20;39.40;;;;;;5095288;28;20473;-78
2021/05/27 11:32:59;;;;;;;2.83;0.93;;;16.20;40.10;;;;;;5095190;28;20036;-78
2021/05/27 11:35:28;;;;;;;3.05;0.80;;;16.20;41.30;;;;;;5094985;28;20518;-78
2021/05/27 11:37:55;;;;;;;0.90;0.60;;;16.30;40.90;;;;;;5095289;28;20024;-79
2021/05/27 11:40:28;;;;;;;1.27;0.60;;;16.10;41.10;;;;;;5095066;28;20494;-77
2021/05/27 11:42:55;;;;;;;3.35;0.70;;;15.90;42.20;;;;;;5095339;28;20488;-78
2021/05/27 11:45:22;;;;;;;2.22;1.00;;;15.90;41.90;;;;;;5094096;28;20024;-79
2021/05/27 11:48:12;;;;;;;3.55;0.45;;;16.00;41.50;;;;;;5094764;28;20169;-78
2021/05/27 11:50:38;;;;;;;2.33;0.60;;;15.90;40.90;;;;;;5095120;28;20137;-78
2021/05/27 11:53:05;;;;;;;1.25;0.50;;;15.50;41.70;;;;;;5095159;28;20376;-78
2021/05/27 11:55:31;;;;;;;1.73;0.88;;;15.70;42.90;;;;;;5095054;28;20024;-78
2021/05/27 11:57:57;;;;;;;1.67;0.40;;;15.60;42.50;;;;;;5097202;28;20024;-79
2021/05/27 12:00:23;;;;;;;1.73;0.50;;;15.60;43.10;;;;;;5094554;28;20488;-76
2021/05/27 12:02:51;;;;;;;1.38;0.40;;;15.90;43.10;;;;;;5099000;28;20040;-78
2021/05/27 12:05:19;;;;;;;1.73;0.50;;;15.90;41.80;;;;;;5095026;28;20500;-77
2021/05/27 12:08:02;;;;;;;3.67;0.80;;;15.70;41.30;;;;;;5094646;28;20077;-77
2021/05/27 12:10:34;;;;;;;1.52;0.65;;;15.70;41.80;;;;;;5094791;28;20043;-77
2021/05/27 12:13:00;;;;;;;4.38;1.90;;;15.20;43.00;;;;;;5094638;28;20421;-75
2021/05/27 12:15:27;;;;;;;1.73;1.10;;;15.00;44.30;;;;;;5094647;28;20465;-78
2021/05/27 12:17:56;;;;;;;2.33;0.93;;;14.90;44.50;;;;;;5094509;28;20113;-78
2021/05/27 12:20:34;;;;;;;1.85;0.80;;;14.60;46.20;;;;;;5094410;28;20028;-78
2021/05/27 12:23:03;;;;;;;0.93;0.38;;;14.50;47.00;;;;;;5094649;28;20030;-79
2021/05/27 12:25:51;;;;;;;2.30;0.75;;;14.50;47.40;;;;;;5094541;28;20035;-78
2021/05/27 12:28:27;;;;;;;1.20;0.57;;;14.40;47.80;;;;;;5094194;28;20464;-78
2021/05/27 12:30:53;;;;;;;1.95;0.60;;;14.50;47.40;;;;;;5093863;28;20419;-79
2021/05/27 12:33:21;;;;;;;1.15;0.73;;;14.50;46.20;;;;;;5094238;28;20020;-78
2021/05/27 12:35:47;;;;;;;1.20;0.50;;;14.70;46.00;;;;;;5092638;28;20079;-78
2021/05/27 12:38:21;;;;;;;6.50;3.15;;;14.90;45.00;;;;;;5094111;28;20020;-78
2021/05/27 12:40:55;;;;;;;1.67;0.90;;;15.10;44.40;;;;;;5094012;28;20085;-78
2021/05/27 12:43:25;;;;;;;1.08;0.60;;;15.10;45.70;;;;;;5094141;28;20024;-78
2021/05/27 12:45:52;;;;;;;1.92;0.85;;;15.20;46.40;;;;;;5093726;28;20024;-79
2021/05/27 12:48:45;;;;;;;3.63;0.80;;;15.20;46.20;;;;;;5093591;28;20038;-78
2021/05/27 12:51:10;;;;;;;1.50;0.80;;;15.00;46.30;;;;;;5088037;28;20036;-77
2021/05/27 12:53:38;;;;;;;3.03;0.90;;;15.00;46.40;;;;;;5094068;28;20107;-78
2021/05/27 12:56:11;;;;;;;2.47;0.70;;;15.00;46.10;;;;;;5093802;28;20016;-80
2021/05/27 12:58:39;;;;;;;1.60;0.85;;;15.00;45.80;;;;;;5093221;28;20020;-80
2021/05/27 13:01:06;;;;;;;2.05;0.68;;;15.10;45.00;;;;;;5092317;28;20396;-81
2021/05/27 13:03:49;;;;;;;3.97;2.28;;;15.30;44.90;;;;;;5092560;28;20031;-79
2021/05/27 13:06:23;;;;;;;1.80;0.60;;;15.20;44.60;;;;;;5093684;28;20071;-80
2021/05/27 13:09:01;;;;;;;2.58;0.70;;;15.20;45.30;;;;;;5093573;28;20151;-80
2021/05/27 13:11:35;;;;;;;4.40;0.77;;;15.30;45.30;;;;;;5093493;28;20023;-80
2021/05/27 13:14:14;;;;;;;3.78;1.00;;;14.80;45.00;;;;;;5093221;28;20024;-79
2021/05/27 13:16:41;;;;;;;1.58;0.50;;;14.60;45.70;;;;;;5093360;28;20024;-80
2021/05/27 13:19:10;;;;;;;2.90;0.90;;;14.60;45.40;;;;;;5092497;28;20024;-79